Time;durP1;ratioP1;P1;durP2;ratioP2;P2;SDS_P1;SDS_P2;PMS_P1;PMS_P2;Temp;Humidity;BMP_temperature;BMP_pressure;BME280_temperature;BME280_humidity;BME280_pressure;Samples;Min_cycle;Max_cycle;Signal;HPM_P1;HPM_P2
2021/07/13 00:00:44;;;;;;;1999.90;999.90;;;;;;;21.23;75.85;100618.50;15804166;28;20040;-63
2021/07/13 00:08:17;;;;;;;1999.90;999.90;;;;;;;21.21;76.03;100615.25;15804194;28;20040;-61
2021/07/13 00:15:50;;;;;;;1999.90;999.90;;;;;;;21.11;76.25;100616.91;15754727;28;20054;-57
2021/07/13 00:23:24;;;;;;;1999.90;999.90;;;;;;;21.06;76.53;100600.31;15802676;28;20044;-59
2021/07/13 00:30:57;;;;;;;1999.90;999.90;;;;;;;20.97;76.82;100609.22;15803085;28;20054;-60
2021/07/13 00:38:30;;;;;;;1999.90;999.90;;;;;;;20.78;77.03;100601.13;15801665;28;20187;-61
2021/07/13 00:46:03;;;;;;;1999.90;999.90;;;;;;;20.82;77.01;100603.94;15801544;28;20210;-58
2021/07/13 00:53:42;;;;;;;1999.90;999.90;;;;;;;20.75;77.20;100604.78;15801261;28;20500;-58
2021/07/13 01:01:14;;;;;;;1999.90;999.90;;;;;;;20.68;77.02;100594.22;15800739;28;20135;-61
2021/07/13 01:08:54;;;;;;;1999.90;999.90;;;;;;;20.60;77.35;100592.59;15782314;28;20040;-59
2021/07/13 01:16:36;;;;;;;1999.90;999.90;;;;;;;20.57;77.39;100581.28;15782604;28;20235;-60
2021/07/13 01:24:49;;;;;;;1999.90;999.90;;;;;;;20.48;77.54;100587.34;15800141;28;20085;-62
2021/07/13 01:41:17;;;;;;;1999.90;999.90;;;;;;;20.38;78.64;100582.44;15798467;28;20097;-62
2021/07/13 01:48:54;;;;;;;1999.90;999.90;;;;;;;20.36;78.73;100582.84;15792632;28;20123;-61
2021/07/13 01:56:30;;;;;;;1999.90;999.90;;;;;;;20.44;78.25;100583.72;15797729;28;20522;-60
2021/07/13 02:04:05;;;;;;;1999.90;999.90;;;;;;;20.38;78.72;100571.09;15779572;28;20032;-64
2021/07/13 02:11:39;;;;;;;1999.90;999.90;;;;;;;20.42;78.26;100586.09;15798381;28;20054;-60
2021/07/13 02:19:12;;;;;;;1999.90;999.90;;;;;;;20.38;78.00;100582.44;15780218;28;20051;-61
2021/07/13 02:26:50;;;;;;;1999.90;999.90;;;;;;;20.26;77.98;100580.00;15799561;28;20477;-61
2021/07/13 02:34:27;;;;;;;1999.90;999.90;;;;;;;20.23;77.95;100572.31;15800507;28;20060;-59
2021/07/13 02:42:00;;;;;;;1999.90;999.90;;;;;;;20.03;77.98;100569.84;15742631;28;20117;-58
2021/07/13 02:49:43;;;;;;;1999.90;999.90;;;;;;;19.60;81.59;100566.88;15797009;28;20119;-59
2021/07/13 02:57:17;;;;;;;;;;;;;;;20.05;79.36;100569.44;15779008;28;20102;-61
2021/07/13 03:04:51;;;;;;;1999.90;999.90;;;;;;;19.77;81.57;100558.84;15795752;28;19920;-59
2021/07/13 03:12:24;;;;;;;1999.90;999.90;;;;;;;19.79;81.49;100560.06;15733365;28;20048;-59
2021/07/13 03:19:57;;;;;;;1999.90;999.90;;;;;;;19.95;81.69;100556.88;15777413;28;20047;-59
2021/07/13 03:27:32;;;;;;;1999.90;999.90;;;;;;;20.05;81.34;100549.63;15795085;28;20189;-60
2021/07/13 03:35:08;;;;;;;1999.90;999.90;;;;;;;20.30;79.97;100541.94;15804709;28;20082;-57
2021/07/13 03:42:41;;;;;;;1999.90;999.90;;;;;;;20.16;80.83;100534.25;15787927;28;20428;-57
2021/07/13 03:50:15;;;;;;;1999.90;999.90;;;;;;;20.10;82.45;100544.34;15805688;28;20244;-59
2021/07/13 03:57:48;;;;;;;1999.90;999.90;;;;;;;20.17;81.73;100552.06;15786755;28;20120;-58
2021/07/13 04:05:22;;;;;;;1999.90;999.90;;;;;;;20.29;81.66;100542.34;15785923;28;20361;-62
2021/07/13 04:12:54;;;;;;;1999.90;999.90;;;;;;;20.30;81.99;100550.44;15789921;28;20186;-60
2021/07/13 04:20:28;;;;;;;1999.90;999.90;;;;;;;20.36;82.56;100543.19;15803270;28;20113;-58
2021/07/13 04:28:00;;;;;;;1999.90;999.90;;;;;;;20.41;82.85;100553.28;15768352;28;20137;-62
2021/07/13 04:35:33;;;;;;;1999.90;999.90;;;;;;;20.70;81.23;100548.47;15785108;28;20040;-60
2021/07/13 04:43:05;;;;;;;1999.90;999.90;;;;;;;20.91;81.10;100556.94;15735892;28;20048;-58
2021/07/13 04:50:45;;;;;;;1999.90;999.90;;;;;;;21.10;79.97;100558.53;15783201;28;20101;-58
2021/07/13 04:58:18;;;;;;;1999.90;999.90;;;;;;;21.31;79.23;100557.69;15854130;22;20078;-63
2021/07/13 05:05:51;;;;;;;1999.90;999.90;;;;;;;21.79;78.21;100566.44;15875949;27;20040;-63
2021/07/13 05:13:26;;;;;;;1999.90;999.90;;;;;;;21.98;77.62;100569.97;15833163;28;20044;-63
2021/07/13 05:21:03;;;;;;;1999.90;999.90;;;;;;;22.41;76.23;100559.19;15831940;28;20043;-62
2021/07/13 05:28:35;;;;;;;1999.90;999.90;;;;;;;22.71;73.89;100564.19;15830854;28;20036;-63
2021/07/13 05:36:09;;;;;;;1999.90;999.90;;;;;;;22.97;72.01;100549.34;15857687;28;20057;-63
2021/07/13 05:43:41;;;;;;;1999.90;999.90;;;;;;;23.68;70.58;100556.28;15825183;28;20048;-63
2021/07/13 05:51:15;;;;;;;;;;;;;;;24.44;68.48;100562.53;15768878;28;20067;-63
2021/07/13 05:58:47;;;;;;;1999.90;999.90;;;;;;;24.67;65.04;100573.16;15739323;28;20385;-62
2021/07/13 06:06:20;;;;;;;1999.90;999.90;;;;;;;24.97;64.86;100575.91;15739247;28;20059;-61
2021/07/13 06:13:53;;;;;;;1999.90;999.90;;;;;;;25.38;61.90;100571.09;15740468;28;20786;-60
2021/07/13 06:21:26;;;;;;;1999.90;999.90;;;;;;;25.64;61.79;100575.88;15739843;28;20532;-62
2021/07/13 06:28:59;;;;;;;1999.90;999.90;;;;;;;26.34;58.87;100566.94;15738481;28;20043;-62
2021/07/13 06:36:32;;;;;;;1999.90;999.90;;;;;;;26.89;60.31;100576.66;15738984;28;20045;-61
2021/07/13 06:44:05;;;;;;;1999.90;999.90;;;;;;;27.11;58.27;100576.13;15738204;28;20068;-61
2021/07/13 06:51:39;;;;;;;1999.90;999.90;;;;;;;27.28;54.01;100574.81;15741531;28;20110;-63
2021/07/13 06:59:11;;;;;;;1999.90;999.90;;;;;;;27.76;54.25;100567.34;15802207;28;20119;-61
2021/07/13 07:06:45;;;;;;;1999.90;999.90;;;;;;;27.87;51.65;100562.88;15791184;28;20067;-61
2021/07/13 07:14:17;;;;;;;1999.90;999.90;;;;;;;28.14;51.70;100567.41;15812960;28;20040;-61
2021/07/13 07:21:50;;;;;;;1999.90;999.90;;;;;;;28.44;51.59;100557.44;15812509;28;20434;-61
2021/07/13 07:29:22;;;;;;;1999.90;999.90;;;;;;;28.54;47.12;100556.28;15812173;28;20082;-61
2021/07/13 07:36:56;;;;;;;1999.90;999.90;;;;;;;28.97;51.56;100557.69;15811330;28;20040;-61
2021/07/13 07:44:28;;;;;;;1999.90;999.90;;;;;;;28.87;47.37;100548.19;15793164;28;20435;-62
2021/07/13 07:52:01;;;;;;;1999.90;999.90;;;;;;;29.33;46.35;100543.69;15810650;28;20523;-63
2021/07/13 07:59:33;;;;;;;1999.90;999.90;;;;;;;29.68;44.28;100540.75;15810654;28;20040;-60
2021/07/13 08:07:07;;;;;;;1999.90;999.90;;;;;;;29.31;44.68;100542.53;15810811;28;20040;-61
2021/07/13 08:14:42;;;;;;;1999.90;999.90;;;;;;;30.00;43.32;100542.38;15791720;28;20028;-61
2021/07/13 08:22:15;;;;;;;1999.90;999.90;;;;;;;31.01;43.19;100546.41;15809641;28;20408;-59
2021/07/13 08:29:48;;;;;;;1999.90;999.90;;;;;;;30.74;44.03;100546.38;15790136;28;20146;-60
2021/07/13 08:37:22;;;;;;;1999.90;999.90;;;;;;;30.49;42.30;100535.09;15790195;28;20036;-61
2021/07/13 08:44:55;;;;;;;1999.90;999.90;;;;;;;30.80;40.58;100526.41;15807521;28;20122;-61
2021/07/13 08:52:28;;;;;;;1999.90;999.90;;;;;;;30.92;40.27;100517.59;15788950;28;20071;-60
2021/07/13 09:00:01;;;;;;;1999.90;999.90;;;;;;;31.76;40.25;100519.19;15806564;28;20157;-62
2021/07/13 09:07:37;;;;;;;1999.90;999.90;;;;;;;31.36;38.46;100522.28;15806574;28;20047;-63
2021/07/13 09:15:13;;;;;;;1999.90;999.90;;;;;;;31.47;39.00;100514.75;15805837;28;20089;-61
2021/07/13 09:22:55;;;;;;;1999.90;999.90;;;;;;;32.29;37.25;100515.78;15805144;28;20476;-61
2021/07/13 09:30:31;;;;;;;1999.90;999.90;;;;;;;32.44;36.94;100496.50;15804546;28;20500;-61
2021/07/13 09:38:04;;;;;;;1999.90;999.90;;;;;;;31.98;37.63;100495.88;15804874;28;20127;-62
2021/07/13 09:45:36;;;;;;;1999.90;999.90;;;;;;;33.34;37.19;100492.63;15785384;28;20135;-62
2021/07/13 09:53:13;;;;;;;1999.90;999.90;;;;;;;32.88;36.11;100499.59;15803421;28;20090;-62
2021/07/13 10:00:48;;;;;;;1999.90;999.90;;;;;;;33.78;38.64;100489.78;15785034;28;20054;-63
2021/07/13 10:08:23;;;;;;;1999.90;999.90;;;;;;;32.11;38.35;100464.75;15802975;28;20048;-62
2021/07/13 10:15:55;;;;;;;1999.90;999.90;;;;;;;33.24;37.85;100466.66;15802700;28;20373;-63
2021/07/13 10:23:29;;;;;;;1999.90;999.90;;;;;;;34.25;35.57;100470.56;15768561;28;20051;-62
2021/07/13 10:31:01;;;;;;;1999.90;999.90;;;;;;;35.42;33.28;100472.09;15803218;28;20117;-62
2021/07/13 10:38:34;;;;;;;1999.90;999.90;;;;;;;34.23;36.67;100470.25;15806606;28;20068;-63
2021/07/13 10:46:09;;;;;;;1999.90;999.90;;;;;;;33.49;37.30;100479.00;15814791;28;20059;-62
2021/07/13 10:53:45;;;;;;;1999.90;999.90;;;;;;;34.00;34.89;100452.56;15862052;22;20055;-65
2021/07/13 11:01:32;;;;;;;1999.90;999.90;;;;;;;33.47;38.20;100458.47;15927491;27;20039;-66
2021/07/13 11:09:19;;;;;;;1999.90;999.90;;;;;;;34.19;34.50;100456.00;15935647;27;20410;-65
2021/07/13 11:16:52;;;;;;;1999.90;999.90;;;;;;;34.59;34.50;100445.78;15916626;27;20476;-65
2021/07/13 11:24:26;;;;;;;1999.90;999.90;;;;;;;34.42;34.41;100445.56;15917311;27;20510;-62
2021/07/13 11:32:01;;;;;;;1999.90;999.90;;;;;;;35.01;35.26;100448.16;15934496;27;20047;-63
2021/07/13 11:39:38;;;;;;;1999.90;999.90;;;;;;;33.23;36.11;100441.16;15915413;27;20035;-63
2021/07/13 11:47:12;;;;;;;1999.90;999.90;;;;;;;32.28;38.92;100433.38;15915020;27;20043;-63
2021/07/13 11:54:48;;;;;;;1999.90;999.90;;;;;;;32.36;37.54;100432.53;15932264;27;20119;-62
2021/07/13 12:02:21;;;;;;;1999.90;999.90;;;;;;;33.33;36.62;100436.88;15914381;27;20043;-63
2021/07/13 12:10:03;;;;;;;1999.90;999.90;;;;;;;35.51;34.35;100430.50;15897078;27;20047;-64
2021/07/13 12:17:36;;;;;;;1999.90;999.90;;;;;;;35.70;32.33;100428.84;15931981;27;20049;-65
2021/07/13 12:25:11;;;;;;;1999.90;999.90;;;;;;;37.21;32.80;100423.88;15931062;27;20043;-66
2021/07/13 12:32:43;;;;;;;1999.90;999.90;;;;;;;34.33;33.72;100417.50;15930681;27;20098;-66
2021/07/13 12:40:17;;;;;;;1999.90;999.90;;;;;;;36.50;30.71;100416.47;15911584;27;20043;-65
2021/07/13 12:47:51;;;;;;;1999.90;999.90;;;;;;;37.97;30.73;100413.34;15910978;27;20047;-66
2021/07/13 12:55:30;;;;;;;1999.90;999.90;;;;;;;38.04;29.64;100409.88;15929575;27;20417;-66
2021/07/13 13:03:04;;;;;;;1999.90;999.90;;;;;;;37.89;30.92;100407.25;15927879;27;20478;-63
2021/07/13 13:10:40;;;;;;;1999.90;999.90;;;;;;;36.38;30.90;100396.09;15928335;27;20400;-65
2021/07/13 13:18:12;;;;;;;1999.90;999.90;;;;;;;34.48;34.17;100379.81;15909559;27;20122;-62
2021/07/13 13:25:46;;;;;;;1999.90;999.90;;;;;;;33.63;37.19;100384.84;15908552;27;20051;-65
2021/07/13 13:33:20;;;;;;;1999.90;999.90;;;;;;;34.16;35.94;100365.16;15908305;27;20121;-66
2021/07/13 13:40:55;;;;;;;1999.90;999.90;;;;;;;34.09;33.92;100373.50;15871687;27;20070;-65
2021/07/13 13:48:27;;;;;;;1999.90;999.90;;;;;;;33.75;35.89;100369.25;15820185;28;20097;-66
2021/07/13 13:56:07;;;;;;;1999.90;999.90;;;;;;;33.63;34.39;100359.59;15803438;28;20062;-66
2021/07/13 14:03:44;;;;;;;1999.90;999.90;;;;;;;33.27;34.98;100355.84;15817340;28;20052;-62
2021/07/13 14:11:19;;;;;;;1999.90;999.90;;;;;;;33.37;34.58;100350.78;15804655;28;20051;-64
2021/07/13 14:18:52;;;;;;;1999.90;999.90;;;;;;;32.71;35.77;100359.75;15818119;28;20044;-63
2021/07/13 14:26:25;;;;;;;1999.90;999.90;;;;;;;32.58;37.89;100359.22;15834946;28;20476;-63
2021/07/13 14:33:57;;;;;;;1999.90;999.90;;;;;;;32.69;35.98;100348.69;15796818;28;20159;-62
2021/07/13 14:41:31;;;;;;;1999.90;999.90;;;;;;;32.49;36.63;100337.00;15803965;28;20059;-62
2021/07/13 14:49:04;;;;;;;1999.90;999.90;;;;;;;32.20;36.86;100322.44;15834007;28;20112;-63
2021/07/13 14:56:39;;;;;;;1999.90;999.90;;;;;;;32.04;37.13;100318.72;15843513;28;20052;-63
2021/07/13 15:04:11;;;;;;;1999.90;999.90;;;;;;;31.87;37.28;100301.03;15830416;28;20051;-63
2021/07/13 15:11:44;;;;;;;1999.90;999.90;;;;;;;32.34;38.79;100307.31;15844861;28;20040;-63
2021/07/13 15:19:17;;;;;;;1999.90;999.90;;;;;;;32.32;37.71;100301.25;15783998;28;20471;-64
2021/07/13 15:26:51;;;;;;;1999.90;999.90;;;;;;;32.11;37.23;100285.81;15844120;28;20131;-63
2021/07/13 15:34:23;;;;;;;1999.90;999.90;;;;;;;32.05;37.39;100277.03;15822738;28;20067;-63
2021/07/13 15:42:00;;;;;;;1999.90;999.90;;;;;;;32.09;37.18;100286.28;15832063;28;20135;-63
2021/07/13 15:49:32;;;;;;;1999.90;999.90;;;;;;;32.16;37.66;100285.13;15822022;28;20040;-64
2021/07/13 15:57:06;;;;;;;1999.90;999.90;;;;;;;31.86;37.51;100282.13;15833709;28;20484;-64
2021/07/13 16:04:38;;;;;;;1999.90;999.90;;;;;;;32.21;37.62;100275.81;15824870;28;20092;-63
2021/07/13 16:12:12;;;;;;;1999.90;999.90;;;;;;;32.13;37.93;100260.16;15821078;28;20051;-63
2021/07/13 16:19:44;;;;;;;1999.90;999.90;;;;;;;31.94;37.61;100268.16;15827387;28;20103;-62
2021/07/13 16:27:17;;;;;;;1999.90;999.90;;;;;;;31.88;36.89;100270.91;15803744;28;20201;-61
2021/07/13 16:34:50;;;;;;;1999.90;999.90;;;;;;;32.18;37.49;100273.88;15813181;28;20055;-64
2021/07/13 16:42:24;;;;;;;1999.90;999.90;;;;;;;31.86;37.79;100267.72;15839638;28;20093;-64
2021/07/13 16:49:56;;;;;;;1999.90;999.90;;;;;;;31.87;38.62;100269.31;15803282;28;20048;-64
2021/07/13 16:57:30;;;;;;;1999.90;999.90;;;;;;;31.76;38.08;100268.25;15801560;23;20070;-64
2021/07/13 17:05:02;;;;;;;1999.90;999.90;;;;;;;31.91;38.44;100288.53;15750859;28;20574;-65
2021/07/13 17:12:35;;;;;;;1999.90;999.90;;;;;;;31.60;39.21;100281.81;15720454;28;20045;-62
2021/07/13 17:20:09;;;;;;;1999.90;999.90;;;;;;;31.55;39.60;100276.69;15718873;28;20125;-57
2021/07/13 17:27:43;;;;;;;1999.90;999.90;;;;;;;31.39;40.02;100294.41;15736575;28;20459;-60
2021/07/13 17:35:16;;;;;;;1999.90;999.90;;;;;;;31.38;41.27;100295.69;15737153;28;20051;-62
2021/07/13 17:42:51;;;;;;;1999.90;999.90;;;;;;;31.29;41.17;100295.72;15737662;28;20501;-59
2021/07/13 17:50:23;;;;;;;1999.90;999.90;;;;;;;31.10;41.35;100311.44;15718696;28;20044;-60
2021/07/13 17:57:57;;;;;;;1999.90;999.90;;;;;;;30.91;42.73;100299.97;15781600;28;20585;-59
2021/07/13 18:05:29;;;;;;;1999.90;999.90;;;;;;;30.61;43.96;100280.81;15795915;28;20101;-56
2021/07/13 18:13:04;;;;;;;1999.90;999.90;;;;;;;30.41;44.21;100290.72;15797773;28;20504;-58
2021/07/13 18:20:36;;;;;;;1999.90;999.90;;;;;;;30.37;45.47;100277.78;15795269;28;20562;-58
2021/07/13 18:28:11;;;;;;;1999.90;999.90;;;;;;;30.24;47.87;100285.81;15796358;28;20231;-58
2021/07/13 18:35:43;;;;;;;1999.90;999.90;;;;;;;29.96;48.47;100282.06;15799505;28;20513;-59
2021/07/13 18:43:17;;;;;;;1999.90;999.90;;;;;;;29.82;49.86;100292.91;15796177;28;20040;-60
2021/07/13 18:50:51;;;;;;;1999.90;999.90;;;;;;;29.67;50.04;100282.47;15796420;28;20048;-58
2021/07/13 18:58:24;;;;;;;1999.90;999.90;;;;;;;29.45;50.58;100277.59;15796026;28;20168;-58
2021/07/13 19:05:57;;;;;;;1999.90;999.90;;;;;;;28.88;50.56;100251.22;15807990;28;20075;-60
2021/07/13 19:13:30;;;;;;;1999.90;999.90;;;;;;;28.67;48.93;100246.28;15806230;28;20047;-61
2021/07/13 19:21:02;;;;;;;1999.90;999.90;;;;;;;28.71;49.07;100255.53;15806218;28;20048;-58
2021/07/13 19:28:38;;;;;;;1999.90;999.90;;;;;;;28.61;48.42;100254.66;15779608;28;20032;-57
2021/07/13 19:44:04;;;;;;;1999.90;999.90;;;;;;;28.45;49.27;100255.69;15785399;28;20040;-56
2021/07/13 19:51:37;;;;;;;1999.90;999.90;;;;;;;28.53;51.45;100246.81;15800631;28;20102;-58
2021/07/13 19:59:11;;;;;;;1999.90;999.90;;;;;;;28.42;52.85;100258.69;15783982;28;20097;-59
2021/07/13 20:06:43;;;;;;;1999.90;999.90;;;;;;;28.23;52.79;100262.63;15797681;28;20045;-61
2021/07/13 20:14:16;;;;;;;;;;;;;;;27.95;51.45;100267.34;15782973;28;20054;-57
2021/07/13 20:21:48;;;;;;;1999.90;999.90;;;;;;;27.79;53.70;100282.63;15762808;28;19967;-59
2021/07/13 20:29:22;;;;;;;;;;;;;;;27.70;51.26;100289.06;15802845;28;20044;-60
2021/07/13 20:36:54;;;;;;;1999.90;999.90;;;;;;;27.68;51.48;100297.31;15784475;28;19986;-57
2021/07/13 20:44:28;;;;;;;1999.90;999.90;;;;;;;27.54;51.17;100278.53;15802107;28;20052;-63
2021/07/13 20:52:01;;;;;;;1999.90;999.90;;;;;;;27.54;50.90;100283.47;15782875;28;20075;-57
2021/07/13 20:59:34;;;;;;;1999.90;999.90;;;;;;;27.60;50.34;100296.72;15800900;28;20052;-59
2021/07/13 21:07:06;;;;;;;1999.90;999.90;;;;;;;27.45;51.28;100289.88;15800374;28;20097;-58
2021/07/13 21:14:39;;;;;;;;;;;;;;;27.49;50.72;100286.88;15801181;28;20485;-58
2021/07/13 21:22:12;;;;;;;1999.90;999.90;;;;;;;27.39;50.71;100285.97;15799257;28;20413;-56
2021/07/13 21:29:45;;;;;;;;;;;;;;;27.38;51.12;100277.84;15799509;28;20059;-57
2021/07/13 21:37:18;;;;;;;1999.90;999.90;;;;;;;27.29;50.96;100270.75;15799485;28;19920;-60
2021/07/13 21:44:52;;;;;;;1999.90;999.90;;;;;;;27.35;51.12;100267.31;15781602;28;20483;-59
2021/07/13 21:52:26;;;;;;;1999.90;999.90;;;;;;;27.35;51.01;100261.59;15797903;28;20138;-57
2021/07/13 22:00:05;;;;;;;1999.90;999.90;;;;;;;27.33;51.10;100247.72;15750546;28;20437;-59
2021/07/13 22:07:38;;;;;;;1999.90;999.90;;;;;;;27.25;51.61;100229.16;15764500;28;20096;-62
2021/07/13 22:15:12;;;;;;;1999.90;999.90;;;;;;;27.31;51.72;100264.59;15769487;28;20044;-61
2021/07/13 22:22:45;;;;;;;1999.90;999.90;;;;;;;27.23;51.82;100297.56;15795878;28;20472;-56
2021/07/13 22:30:19;;;;;;;1999.90;999.90;;;;;;;26.02;59.04;100352.50;15778156;28;20415;-62
2021/07/13 22:37:52;;;;;;;1999.90;999.90;;;;;;;22.61;77.27;100294.97;15812392;28;20048;-64
2021/07/13 22:45:48;;;;;;;1999.90;999.90;;;;;;;22.10;79.53;100328.03;15806797;28;20058;-62
2021/07/13 22:53:47;;;;;;;1999.90;999.90;;;;;;;21.85;83.31;100308.34;15800959;22;20334;-66
2021/07/13 23:01:28;;;;;;;1999.90;999.90;;;;;;;21.76;84.77;100303.16;15773113;28;20140;-66
2021/07/13 23:09:13;;;;;;;1999.90;999.90;;;;;;;21.75;83.16;100332.78;15719513;28;20075;-66
2021/07/13 23:17:06;;;;;;;1999.90;999.90;;;;;;;21.98;83.00;100317.16;15704149;28;20063;-64
2021/07/13 23:24:38;;;;;;;1999.90;999.90;;;;;;;22.15;84.18;100296.31;15721305;28;20505;-66
2021/07/13 23:32:32;;;;;;;1999.90;999.90;;;;;;;21.89;86.01;100249.50;15758114;28;20036;-65
2021/07/13 23:40:14;;;;;;;1999.90;999.90;;;;;;;22.14;84.89;100274.81;15758351;28;20043;-66
2021/07/13 23:47:54;;;;;;;1999.90;999.90;;;;;;;22.17;83.33;100282.50;15724692;28;20040;-66
2021/07/13 23:55:26;;;;;;;1999.90;999.90;;;;;;;21.89;83.59;100275.06;15747090;28;20055;-67
